Strona główna
METAR-TAF:

METAR-TAF

Lotnisko :

Port lotniczy Paryż-Roissy-Charles de Gaulle

Paryż-Charles de Gaulle, Francja

Szerokość geograficzna: 49-01N, Długość geograficzna: 002-32E, wysokość: 118 m

Aktualna obserwacja pogody

Raport powstał 44 minut temu, godzina 03:30 UTC
Wiatr 6 kt od północ
Temperatura 7°C
Wilgotność 93%
Ciśnienie 1032 hPa
Widzialność 10 km lub więcej
Brak chmur poniżej 1500 m i brak chmur cumulonimbus

METAR: LFPG 240330Z 36006KT CAVOK 07/06 Q1032 NOSIG

czas: 06:14 (04:14 UTC)

Prognoza

Raport powstał 3 godziny i 47 minut temu, godzina 00:27 UTC
Prognoza ważna od 24 godzina 00 UTC do 25 godzina 06 UTC
Wiatr 5 kt od północny zachód
Widzialność 10 km lub więcej
Brak chmur poniżej 1500 m i brak chmur cumulonimbus
Stopniowe zmiany
od 24 godzina 09 UTC do 24 godzina 11 UTC
Wiatr 10 kt od północno-północny wschód

TAF: LFPG 240027Z 2400/2506 32005KT CAVOK TX16/2414Z TN07/2405Z BECMG 2409/2411 02010KT

Obserwacja i prognoza pogody dla ponad 4000 lotnisk (raport METAR i TAF).

Dostępne stacje oznaczono żółtymi i czerwonymi punktami na mapie.

Najedź kursorem aby zobaczyć nazwę stacji.

Kliknij aby zobaczyć obserwacje i prognozy pogody.

Aby zmienić mapę: kliknij na zielony przycisk z czarnym krzyżykiem, aby powiększyć; na zielony przycisk z myślnikiem, aby pomniejszyć; na zielone strzałki, aby przejść do map sąsiednich.


METAR-TAF: